createdAt,value
2023-04-16T00:02:17.952Z,97965.34
2023-04-16T00:07:25.109Z,97964.90
2023-04-16T00:12:32.618Z,97964.72
2023-04-16T00:17:39.709Z,97962.54
2023-04-16T00:22:47.001Z,97964.93
2023-04-16T00:27:54.315Z,97960.92
2023-04-16T00:33:02.196Z,97956.61
2023-04-16T00:38:09.676Z,97960.98
2023-04-16T00:43:21.795Z,97961.73
2023-04-16T00:48:31.038Z,97962.48
2023-04-16T00:53:38.483Z,97963.38
2023-04-16T00:58:45.755Z,97965.45
2023-04-16T01:03:53.320Z,97967.13
2023-04-16T01:09:00.481Z,97967.26
2023-04-16T01:14:08.209Z,97970.98
2023-04-16T01:19:15.920Z,97970.13
2023-04-16T01:24:23.341Z,97972.86
2023-04-16T01:29:30.893Z,97977.38
2023-04-16T01:34:38.383Z,97974.10
2023-04-16T01:39:45.673Z,97974.55
2023-04-16T01:44:52.943Z,97979.64
2023-04-16T01:50:01.142Z,97981.40
2023-04-16T01:55:09.407Z,97987.94
2023-04-16T02:00:17.016Z,97988.83
2023-04-16T02:05:24.286Z,97997.94
2023-04-16T02:10:31.742Z,97999.84
2023-04-16T02:15:39.003Z,98005.70
2023-04-16T02:20:46.582Z,98008.23
2023-04-16T02:25:53.778Z,98015.66
2023-04-16T02:31:01.015Z,98018.70
2023-04-16T02:36:08.756Z,98019.12
2023-04-16T02:41:15.699Z,98021.94
2023-04-16T02:46:23.022Z,98022.02
2023-04-16T02:51:30.426Z,98030.48
2023-04-16T02:56:37.850Z,98025.35
2023-04-16T03:01:45.110Z,98031.50
2023-04-16T03:06:52.191Z,98036.89
2023-04-16T03:11:59.247Z,98044.13
2023-04-16T03:17:06.681Z,98042.27
2023-04-16T03:22:13.757Z,98051.67
2023-04-16T03:27:20.805Z,98056.98
2023-04-16T03:32:28.003Z,98060.70
2023-04-16T03:37:35.029Z,98071.07
2023-04-16T03:42:42.356Z,98078.74
2023-04-16T03:47:53.153Z,98081.36
2023-04-16T03:53:00.972Z,98086.65
2023-04-16T03:58:08.259Z,98093.11
2023-04-16T04:03:17.439Z,98100.36
2023-04-16T04:08:24.886Z,98105.52
2023-04-16T04:13:32.123Z,98113.05
2023-04-16T04:18:39.071Z,98116.30
2023-04-16T04:23:46.121Z,98116.09
2023-04-16T04:28:53.374Z,98118.89
2023-04-16T04:34:00.222Z,98123.86
2023-04-16T04:39:07.872Z,98134.62
2023-04-16T04:44:15.399Z,98137.95
2023-04-16T04:49:22.686Z,98150.13
2023-04-16T04:54:30.112Z,98152.35
2023-04-16T04:59:37.576Z,98150.04
2023-04-16T05:04:44.955Z,98151.92
2023-04-16T05:09:52.320Z,98169.06
2023-04-16T05:14:59.561Z,98171.55
2023-04-16T05:20:07.190Z,98179.54
2023-04-16T05:25:14.302Z,98189.02
2023-04-16T05:30:21.463Z,98191.89
2023-04-16T05:35:28.839Z,98193.39
2023-04-16T05:40:35.913Z,98194.02
2023-04-16T05:45:42.924Z,98192.83
2023-04-16T05:50:50.976Z,98200.94
2023-04-16T05:55:58.205Z,98208.05
2023-04-16T06:01:05.504Z,98222.45
2023-04-16T06:06:12.768Z,98225.66
2023-04-16T06:11:19.867Z,98226.86
2023-04-16T06:16:27.298Z,98233.42
2023-04-16T06:21:34.987Z,98233.05
2023-04-16T06:26:42.467Z,98243.79
2023-04-16T06:31:50.084Z,98243.38
2023-04-16T06:36:57.636Z,98249.84
2023-04-16T06:42:04.833Z,98253.27
2023-04-16T06:47:12.000Z,98252.67
2023-04-16T06:52:18.918Z,98260.67
2023-04-16T06:57:26.013Z,98254.24
2023-04-16T07:02:33.268Z,98255.55
2023-04-16T07:07:40.840Z,98252.23
2023-04-16T07:12:48.092Z,98249.44
2023-04-16T07:17:55.906Z,98258.32
2023-04-16T07:23:03.488Z,98266.52
2023-04-16T07:28:10.896Z,98271.07
2023-04-16T07:33:18.495Z,98268.31
2023-04-16T07:38:25.708Z,98268.36
2023-04-16T07:43:32.986Z,98272.77
2023-04-16T07:48:40.718Z,98277.37
2023-04-16T07:53:48.032Z,98275.99
2023-04-16T07:58:55.492Z,98286.27
2023-04-16T08:04:02.995Z,98290.71
2023-04-16T08:09:11.207Z,98294.45
2023-04-16T08:14:18.696Z,98298.82
2023-04-16T08:19:26.284Z,98306.55
2023-04-16T08:24:33.472Z,98311.27
2023-04-16T08:29:40.730Z,98312.83
2023-04-16T08:34:47.983Z,98311.18
2023-04-16T08:39:55.079Z,98312.63
2023-04-16T08:45:06.114Z,98322.95
2023-04-16T08:50:16.250Z,98325.39
2023-04-16T08:55:25.153Z,98323.30
2023-04-16T09:00:33.845Z,98327.42
2023-04-16T09:05:41.439Z,98329.33
2023-04-16T09:10:48.704Z,98332.99
2023-04-16T09:15:57.460Z,98337.31
2023-04-16T09:21:05.061Z,98344.02
2023-04-16T09:26:12.301Z,98343.64
2023-04-16T09:31:20.049Z,98348.02
2023-04-16T09:36:28.392Z,98342.45
2023-04-16T09:41:38.710Z,98347.89
2023-04-16T09:46:46.152Z,98353.75
2023-04-16T09:51:56.462Z,98353.37
2023-04-16T09:57:03.606Z,98355.23
2023-04-16T10:02:15.567Z,98351.04
2023-04-16T10:07:24.163Z,98351.54
2023-04-16T10:12:33.093Z,98351.17
2023-04-16T10:17:40.498Z,98348.44
2023-04-16T10:22:48.873Z,98344.70
2023-04-16T10:27:57.294Z,98351.73
2023-04-16T10:33:05.834Z,98356.20
2023-04-16T10:38:26.884Z,98362.41
2023-04-16T10:43:35.281Z,98361.94
2023-04-16T10:48:49.661Z,98364.55
2023-04-16T10:53:58.264Z,98368.68
2023-04-16T10:59:06.354Z,98372.39
2023-04-16T11:04:35.622Z,98372.54
2023-04-16T11:09:53.275Z,98373.63
2023-04-16T11:15:02.675Z,98371.83
2023-04-16T11:20:19.943Z,98377.06
2023-04-16T11:25:30.034Z,98372.44
2023-04-16T11:30:51.547Z,98374.52
2023-04-16T11:36:02.022Z,98377.55
2023-04-16T11:41:09.231Z,98378.29
2023-04-16T11:46:26.824Z,98376.98
2023-04-16T11:51:35.478Z,98373.64
2023-04-16T11:56:48.123Z,98377.88
2023-04-16T12:01:56.781Z,98382.38
2023-04-16T12:07:13.852Z,98375.84
2023-04-16T12:12:31.930Z,98382.95
2023-04-16T12:17:39.848Z,98378.55
2023-04-16T12:22:48.679Z,98382.59
2023-04-16T12:27:56.280Z,98377.69
2023-04-16T12:33:19.610Z,98369.77
2023-04-16T12:38:27.285Z,98376.59
2023-04-16T12:43:35.025Z,98374.23
2023-04-16T12:48:43.037Z,98375.68
2023-04-16T12:53:49.950Z,98380.55
2023-04-16T12:58:57.276Z,98373.61
2023-04-16T13:04:04.698Z,98364.52
2023-04-16T13:09:12.281Z,98367.98
2023-04-16T13:14:19.480Z,98364.01
2023-04-16T13:19:26.781Z,98364.88
2023-04-16T13:24:34.081Z,98365.77
2023-04-16T13:29:41.533Z,98361.59
2023-04-16T13:34:49.120Z,98359.66
2023-04-16T13:39:56.891Z,98357.36
2023-04-16T13:45:04.394Z,98354.43
2023-04-16T13:50:12.257Z,98363.00
2023-04-16T13:55:19.636Z,98360.48
2023-04-16T14:00:27.629Z,98353.34
2023-04-16T14:05:35.058Z,98354.76
2023-04-16T14:10:42.567Z,98352.97
2023-04-16T14:15:49.685Z,98348.96
2023-04-16T14:20:56.930Z,98358.14
2023-04-16T14:26:03.977Z,98359.71
2023-04-16T14:31:11.337Z,98357.20
2023-04-16T14:36:18.790Z,98357.45
2023-04-16T14:41:26.175Z,98357.45
2023-04-16T14:46:34.056Z,98354.23
2023-04-16T14:51:41.290Z,98354.80
2023-04-16T14:56:48.968Z,98357.07
2023-04-16T15:01:57.038Z,98351.61
2023-04-16T15:07:04.884Z,98350.35
2023-04-16T15:12:12.657Z,98346.95
2023-04-16T15:17:20.500Z,98347.71
2023-04-16T15:22:27.796Z,98349.82
2023-04-16T15:27:35.259Z,98350.45
2023-04-16T15:32:42.442Z,98354.19
2023-04-16T15:37:49.639Z,98360.04
2023-04-16T15:42:56.901Z,98360.98
2023-04-16T15:48:05.952Z,98363.76
2023-04-16T15:53:13.282Z,98359.64
2023-04-16T15:58:21.326Z,98368.66
2023-04-16T16:03:28.780Z,98371.67
2023-04-16T16:08:38.212Z,98370.99
2023-04-16T16:13:45.252Z,98375.96
2023-04-16T16:18:52.408Z,98380.80
2023-04-16T16:23:59.683Z,98384.23
2023-04-16T16:29:07.538Z,98385.81
2023-04-16T16:34:20.429Z,98388.02
2023-04-16T16:39:28.842Z,98389.69
2023-04-16T16:44:35.741Z,98387.48
2023-04-16T16:49:43.195Z,98391.59
2023-04-16T16:54:50.659Z,98388.27
2023-04-16T16:59:58.931Z,98395.71
2023-04-16T17:05:06.361Z,98399.63
2023-04-16T17:10:20.513Z,98401.54
2023-04-16T17:15:28.188Z,98401.74
2023-04-16T17:20:35.247Z,98405.27
2023-04-16T17:25:42.282Z,98410.64
2023-04-16T17:30:52.937Z,98413.02
2023-04-16T17:35:59.924Z,98418.40
2023-04-16T17:41:07.339Z,98425.98
2023-04-16T17:46:14.764Z,98431.06
2023-04-16T17:51:22.225Z,98435.89
2023-04-16T17:56:29.627Z,98440.23
2023-04-16T18:01:36.996Z,98443.80
2023-04-16T18:06:43.963Z,98452.54
2023-04-16T18:11:51.216Z,98456.48
2023-04-16T18:16:58.724Z,98465.26
2023-04-16T18:22:06.181Z,98476.41
2023-04-16T18:27:13.343Z,98478.93
2023-04-16T18:32:21.167Z,98482.19
2023-04-16T18:37:28.798Z,98490.98
2023-04-16T18:42:37.297Z,98487.09
2023-04-16T18:47:45.016Z,98491.98
2023-04-16T18:52:52.188Z,98489.79
2023-04-16T18:57:59.119Z,98497.85
2023-04-16T19:03:07.861Z,98496.85
2023-04-16T19:08:15.175Z,98498.83
2023-04-16T19:13:22.417Z,98507.67
2023-04-16T19:18:29.620Z,98504.62
2023-04-16T19:23:36.913Z,98509.16
2023-04-16T19:28:44.352Z,98509.87
2023-04-16T19:33:51.762Z,98512.10
2023-04-16T19:38:59.191Z,98511.71
2023-04-16T19:44:07.301Z,98509.25
2023-04-16T19:49:14.411Z,98511.86
2023-04-16T19:54:21.614Z,98506.11
2023-04-16T19:59:29.164Z,98510.17
2023-04-16T20:04:36.431Z,98514.59
2023-04-16T20:09:43.484Z,98512.34
2023-04-16T20:14:51.041Z,98512.60
2023-04-16T20:20:01.247Z,98511.50
2023-04-16T20:25:09.525Z,98509.30
2023-04-16T20:30:17.539Z,98515.73
2023-04-16T20:35:25.031Z,98522.03
2023-04-16T20:40:32.575Z,98519.20
2023-04-16T20:45:41.225Z,98520.48
2023-04-16T20:50:48.168Z,98514.48
2023-04-16T20:55:55.324Z,98516.84
2023-04-16T21:01:02.670Z,98522.23
2023-04-16T21:06:10.240Z,98523.31
2023-04-16T21:11:17.722Z,98521.67
2023-04-16T21:16:25.176Z,98514.48
2023-04-16T21:21:32.680Z,98515.04
2023-04-16T21:26:39.820Z,98512.67
2023-04-16T21:31:47.184Z,98514.41
2023-04-16T21:36:54.671Z,98510.06
2023-04-16T21:42:02.113Z,98508.18
2023-04-16T21:47:09.424Z,98508.45
2023-04-16T21:52:18.631Z,98508.43
2023-04-16T21:57:26.027Z,98508.95
2023-04-16T22:02:34.440Z,98511.91
2023-04-16T22:07:42.226Z,98512.10
2023-04-16T22:12:49.542Z,98512.03
2023-04-16T22:17:57.219Z,98508.88
2023-04-16T22:23:04.766Z,98509.52
2023-04-16T22:28:12.172Z,98514.77
2023-04-16T22:33:19.611Z,98516.81
2023-04-16T22:38:27.021Z,98510.30
2023-04-16T22:43:35.321Z,98511.84
2023-04-16T22:48:42.264Z,98509.79
2023-04-16T22:53:49.561Z,98509.98
2023-04-16T22:58:56.732Z,98507.95
2023-04-16T23:04:04.216Z,98507.63
2023-04-16T23:09:11.866Z,98503.31
2023-04-16T23:14:19.829Z,98503.34
2023-04-16T23:19:27.407Z,98494.48
2023-04-16T23:24:35.182Z,98500.52
2023-04-16T23:29:42.340Z,98499.48
2023-04-16T23:34:49.637Z,98491.69
2023-04-16T23:39:57.162Z,98492.98
2023-04-16T23:45:04.183Z,98488.80
2023-04-16T23:50:12.039Z,98484.85
2023-04-16T23:55:19.421Z,98485.67
